KDNV/DNV METAR and TAF weather

Enter ICAO airport designator
Station Type Date Time Source
KDNV METAR 2020/01/21 21:35 UTC NOAA

KDNV 212135Z AUTO 19005KT 10SM OVC028 00/M05 A3052 RMK AO2 T10031052


Station Type Date Time Source
KDNV Decoded METAR 2020/01/21 21:35 UTC NOAA

Danville, Vermilion County Airport, IL, United States (KDNV) 40-11-58N 087-35-44W
Jan 21, 2020 - 04:35 PM EST / 2020.01.21 2135 UTC
Wind: from the S (190 degrees) at 6 MPH (5 KT):0
Visibility: 10 mile(s):0
Sky conditions: overcast
Temperature: 31.5 F (-0.3 C)
Windchill: 24 F (-4 C):1
Dew Point: 22.6 F (-5.2 C)
Relative Humidity: 69%
Pressure (altimeter): 30.52 in. Hg (1033 hPa)
ob: KDNV 212135Z AUTO 19005KT 10SM OVC028 00/M05 A3052 RMK AO2 T10031052
cycle: 21

Station Type Date Time Source
KDNV TAF UTC NOAA

Error!

Example: see airport list